sensor_id;sensor_type;location;lat;lon;timestamp;temperature;humidity
12872;DHT22;6504;53.766;9.626;2022-11-15T00:01:09;6.30;99.90
12872;DHT22;6504;53.766;9.626;2022-11-15T00:03:42;6.30;99.90
12872;DHT22;6504;53.766;9.626;2022-11-15T00:06:10;6.30;99.90
12872;DHT22;6504;53.766;9.626;2022-11-15T00:08:38;6.30;99.90
12872;DHT22;6504;53.766;9.626;2022-11-15T00:11:06;6.30;99.90
12872;DHT22;6504;53.766;9.626;2022-11-15T00:13:34;6.30;99.90
12872;DHT22;6504;53.766;9.626;2022-11-15T00:16:02;6.30;99.90
12872;DHT22;6504;53.766;9.626;2022-11-15T00:18:30;6.30;99.90
12872;DHT22;6504;53.766;9.626;2022-11-15T00:21:05;6.30;99.90
12872;DHT22;6504;53.766;9.626;2022-11-15T00:23:34;6.30;99.90
12872;DHT22;6504;53.766;9.626;2022-11-15T00:26:02;6.20;99.90
12872;DHT22;6504;53.766;9.626;2022-11-15T00:28:30;6.20;99.90
12872;DHT22;6504;53.766;9.626;2022-11-15T00:31:01;6.20;99.90
12872;DHT22;6504;53.766;9.626;2022-11-15T00:33:30;6.20;99.90
12872;DHT22;6504;53.766;9.626;2022-11-15T00:36:04;6.20;99.90
12872;DHT22;6504;53.766;9.626;2022-11-15T00:38:33;6.20;99.90
12872;DHT22;6504;53.766;9.626;2022-11-15T00:41:02;6.20;99.90
12872;DHT22;6504;53.766;9.626;2022-11-15T00:43:35;6.20;99.90
12872;DHT22;6504;53.766;9.626;2022-11-15T00:46:03;6.20;99.90
12872;DHT22;6504;53.766;9.626;2022-11-15T00:48:31;6.20;99.90
12872;DHT22;6504;53.766;9.626;2022-11-15T00:50:59;6.20;99.90
12872;DHT22;6504;53.766;9.626;2022-11-15T00:53:28;6.20;99.90
12872;DHT22;6504;53.766;9.626;2022-11-15T00:55:57;6.20;99.90
12872;DHT22;6504;53.766;9.626;2022-11-15T00:58:25;6.20;99.90
12872;DHT22;6504;53.766;9.626;2022-11-15T01:00:53;6.20;99.90
12872;DHT22;6504;53.766;9.626;2022-11-15T01:03:21;6.20;99.90
12872;DHT22;6504;53.766;9.626;2022-11-15T01:05:49;6.20;99.90
12872;DHT22;6504;53.766;9.626;2022-11-15T01:08:17;6.20;99.90
12872;DHT22;6504;53.766;9.626;2022-11-15T01:10:46;6.20;99.90
12872;DHT22;6504;53.766;9.626;2022-11-15T01:13:14;6.30;99.90
12872;DHT22;6504;53.766;9.626;2022-11-15T01:15:43;6.30;99.90
12872;DHT22;6504;53.766;9.626;2022-11-15T01:18:11;6.30;99.90
12872;DHT22;6504;53.766;9.626;2022-11-15T01:20:40;6.30;99.90
12872;DHT22;6504;53.766;9.626;2022-11-15T01:23:08;6.30;99.90
12872;DHT22;6504;53.766;9.626;2022-11-15T01:25:36;6.30;99.90
12872;DHT22;6504;53.766;9.626;2022-11-15T01:28:06;6.30;99.90
12872;DHT22;6504;53.766;9.626;2022-11-15T01:30:35;6.30;99.90
12872;DHT22;6504;53.766;9.626;2022-11-15T01:33:03;6.30;99.90
12872;DHT22;6504;53.766;9.626;2022-11-15T01:35:31;6.30;99.90
12872;DHT22;6504;53.766;9.626;2022-11-15T01:37:59;6.30;99.90
12872;DHT22;6504;53.766;9.626;2022-11-15T01:40:27;6.40;99.90
12872;DHT22;6504;53.766;9.626;2022-11-15T01:42:55;6.40;99.90
12872;DHT22;6504;53.766;9.626;2022-11-15T01:45:24;6.40;99.90
12872;DHT22;6504;53.766;9.626;2022-11-15T01:47:53;6.40;99.90
12872;DHT22;6504;53.766;9.626;2022-11-15T01:50:24;6.40;99.90
12872;DHT22;6504;53.766;9.626;2022-11-15T01:52:54;6.40;99.90
12872;DHT22;6504;53.766;9.626;2022-11-15T01:55:24;6.40;99.90
12872;DHT22;6504;53.766;9.626;2022-11-15T01:57:56;6.40;99.90
12872;DHT22;6504;53.766;9.626;2022-11-15T02:00:27;6.40;99.90
12872;DHT22;6504;53.766;9.626;2022-11-15T02:02:55;6.40;99.90
12872;DHT22;6504;53.766;9.626;2022-11-15T02:05:24;6.30;99.90
12872;DHT22;6504;53.766;9.626;2022-11-15T02:07:52;6.30;99.90
12872;DHT22;6504;53.766;9.626;2022-11-15T02:10:22;6.30;99.90
12872;DHT22;6504;53.766;9.626;2022-11-15T02:12:51;6.30;99.90
12872;DHT22;6504;53.766;9.626;2022-11-15T02:15:20;6.30;99.90
12872;DHT22;6504;53.766;9.626;2022-11-15T02:18:09;6.30;99.90
12872;DHT22;6504;53.766;9.626;2022-11-15T02:21:06;6.30;99.90
12872;DHT22;6504;53.766;9.626;2022-11-15T02:24:00;6.30;99.90
12872;DHT22;6504;53.766;9.626;2022-11-15T02:26:59;6.30;99.90
12872;DHT22;6504;53.766;9.626;2022-11-15T02:29:41;6.30;99.90
12872;DHT22;6504;53.766;9.626;2022-11-15T02:32:19;6.30;99.90
12872;DHT22;6504;53.766;9.626;2022-11-15T02:34:54;6.30;99.90
12872;DHT22;6504;53.766;9.626;2022-11-15T02:37:42;6.30;99.90
12872;DHT22;6504;53.766;9.626;2022-11-15T02:40:16;6.30;99.90
12872;DHT22;6504;53.766;9.626;2022-11-15T02:42:50;6.30;99.90
12872;DHT22;6504;53.766;9.626;2022-11-15T02:45:43;6.30;99.90
12872;DHT22;6504;53.766;9.626;2022-11-15T02:48:14;6.30;99.90
12872;DHT22;6504;53.766;9.626;2022-11-15T02:50:43;6.30;99.90
12872;DHT22;6504;53.766;9.626;2022-11-15T02:53:11;6.30;99.90
12872;DHT22;6504;53.766;9.626;2022-11-15T02:55:43;6.30;99.90
12872;DHT22;6504;53.766;9.626;2022-11-15T03:01:21;6.30;99.90
12872;DHT22;6504;53.766;9.626;2022-11-15T03:03:59;6.20;99.90
12872;DHT22;6504;53.766;9.626;2022-11-15T03:06:35;6.20;99.90
12872;DHT22;6504;53.766;9.626;2022-11-15T03:09:08;6.20;99.90
12872;DHT22;6504;53.766;9.626;2022-11-15T03:11:44;6.20;99.90
12872;DHT22;6504;53.766;9.626;2022-11-15T03:14:20;6.20;99.90
12872;DHT22;6504;53.766;9.626;2022-11-15T03:16:55;6.20;99.90
12872;DHT22;6504;53.766;9.626;2022-11-15T03:19:31;6.20;99.90
12872;DHT22;6504;53.766;9.626;2022-11-15T03:22:04;6.20;99.90
12872;DHT22;6504;53.766;9.626;2022-11-15T03:24:36;6.10;99.90
12872;DHT22;6504;53.766;9.626;2022-11-15T03:27:06;6.10;99.90
12872;DHT22;6504;53.766;9.626;2022-11-15T03:29:37;6.00;99.90
12872;DHT22;6504;53.766;9.626;2022-11-15T03:32:11;5.90;99.90
12872;DHT22;6504;53.766;9.626;2022-11-15T03:34:44;5.90;99.90
12872;DHT22;6504;53.766;9.626;2022-11-15T03:37:16;5.90;99.90
12872;DHT22;6504;53.766;9.626;2022-11-15T03:39:45;5.90;99.90
12872;DHT22;6504;53.766;9.626;2022-11-15T03:42:20;5.80;99.90
12872;DHT22;6504;53.766;9.626;2022-11-15T03:44:54;5.80;99.90
12872;DHT22;6504;53.766;9.626;2022-11-15T03:47:29;5.80;99.90
12872;DHT22;6504;53.766;9.626;2022-11-15T03:50:04;5.80;99.90
12872;DHT22;6504;53.766;9.626;2022-11-15T03:52:34;5.70;99.90
12872;DHT22;6504;53.766;9.626;2022-11-15T03:55:04;5.70;99.90
12872;DHT22;6504;53.766;9.626;2022-11-15T03:57:33;5.80;99.90
12872;DHT22;6504;53.766;9.626;2022-11-15T04:00:02;5.80;99.90
12872;DHT22;6504;53.766;9.626;2022-11-15T04:02:30;5.80;99.90
12872;DHT22;6504;53.766;9.626;2022-11-15T04:05:00;5.80;99.90
12872;DHT22;6504;53.766;9.626;2022-11-15T04:07:28;5.80;99.90
12872;DHT22;6504;53.766;9.626;2022-11-15T04:09:56;5.80;99.90
12872;DHT22;6504;53.766;9.626;2022-11-15T04:12:31;5.80;99.90
12872;DHT22;6504;53.766;9.626;2022-11-15T04:15:00;5.90;99.90
12872;DHT22;6504;53.766;9.626;2022-11-15T04:17:36;5.90;99.90
12872;DHT22;6504;53.766;9.626;2022-11-15T04:20:08;5.90;99.90
12872;DHT22;6504;53.766;9.626;2022-11-15T04:22:54;5.90;99.90
12872;DHT22;6504;53.766;9.626;2022-11-15T04:25:41;5.90;99.90
12872;DHT22;6504;53.766;9.626;2022-11-15T04:28:10;6.00;99.90
12872;DHT22;6504;53.766;9.626;2022-11-15T04:30:39;6.00;99.90
12872;DHT22;6504;53.766;9.626;2022-11-15T04:33:07;6.00;99.90
12872;DHT22;6504;53.766;9.626;2022-11-15T04:35:36;6.00;99.90
12872;DHT22;6504;53.766;9.626;2022-11-15T04:38:06;6.00;99.90
12872;DHT22;6504;53.766;9.626;2022-11-15T04:40:34;6.00;99.90
12872;DHT22;6504;53.766;9.626;2022-11-15T04:43:02;6.00;99.90
12872;DHT22;6504;53.766;9.626;2022-11-15T04:45:31;6.00;99.90
12872;DHT22;6504;53.766;9.626;2022-11-15T04:47:58;6.00;99.90
12872;DHT22;6504;53.766;9.626;2022-11-15T04:50:27;6.10;99.90
12872;DHT22;6504;53.766;9.626;2022-11-15T04:52:56;6.10;99.90
12872;DHT22;6504;53.766;9.626;2022-11-15T04:55:24;6.10;99.90
12872;DHT22;6504;53.766;9.626;2022-11-15T04:57:59;6.10;99.90
12872;DHT22;6504;53.766;9.626;2022-11-15T05:00:28;6.10;99.90
12872;DHT22;6504;53.766;9.626;2022-11-15T05:02:56;6.20;99.90
12872;DHT22;6504;53.766;9.626;2022-11-15T05:05:57;6.20;99.90
12872;DHT22;6504;53.766;9.626;2022-11-15T05:08:27;6.20;99.90
12872;DHT22;6504;53.766;9.626;2022-11-15T05:10:55;6.20;99.90
12872;DHT22;6504;53.766;9.626;2022-11-15T05:13:23;6.20;99.90
12872;DHT22;6504;53.766;9.626;2022-11-15T05:15:51;6.20;99.90
12872;DHT22;6504;53.766;9.626;2022-11-15T05:18:19;6.20;99.90
12872;DHT22;6504;53.766;9.626;2022-11-15T05:20:49;6.20;99.90
12872;DHT22;6504;53.766;9.626;2022-11-15T05:23:17;6.20;99.90
12872;DHT22;6504;53.766;9.626;2022-11-15T05:25:47;6.20;99.90
12872;DHT22;6504;53.766;9.626;2022-11-15T05:28:15;6.30;99.90
12872;DHT22;6504;53.766;9.626;2022-11-15T05:30:43;6.30;99.90
12872;DHT22;6504;53.766;9.626;2022-11-15T05:33:11;6.30;99.90
12872;DHT22;6504;53.766;9.626;2022-11-15T05:35:42;6.30;99.90
12872;DHT22;6504;53.766;9.626;2022-11-15T05:38:13;6.30;99.90
12872;DHT22;6504;53.766;9.626;2022-11-15T05:40:41;6.40;99.90
12872;DHT22;6504;53.766;9.626;2022-11-15T05:43:11;6.40;99.90
12872;DHT22;6504;53.766;9.626;2022-11-15T05:45:39;6.40;99.90
12872;DHT22;6504;53.766;9.626;2022-11-15T05:48:08;6.40;99.90
12872;DHT22;6504;53.766;9.626;2022-11-15T05:50:39;6.40;99.90
12872;DHT22;6504;53.766;9.626;2022-11-15T05:53:11;6.40;99.90
12872;DHT22;6504;53.766;9.626;2022-11-15T05:55:41;6.40;99.90
12872;DHT22;6504;53.766;9.626;2022-11-15T05:58:10;6.50;99.90
12872;DHT22;6504;53.766;9.626;2022-11-15T06:00:39;6.50;99.90
12872;DHT22;6504;53.766;9.626;2022-11-15T06:03:07;6.50;99.90
12872;DHT22;6504;53.766;9.626;2022-11-15T06:05:35;6.50;99.90
12872;DHT22;6504;53.766;9.626;2022-11-15T06:08:03;6.50;99.90
12872;DHT22;6504;53.766;9.626;2022-11-15T06:10:31;6.60;99.90
12872;DHT22;6504;53.766;9.626;2022-11-15T06:13:01;6.60;99.90
12872;DHT22;6504;53.766;9.626;2022-11-15T06:15:31;6.60;99.90
12872;DHT22;6504;53.766;9.626;2022-11-15T06:18:00;6.60;99.90
12872;DHT22;6504;53.766;9.626;2022-11-15T06:20:29;6.60;99.90
12872;DHT22;6504;53.766;9.626;2022-11-15T06:22:57;6.60;99.90
12872;DHT22;6504;53.766;9.626;2022-11-15T06:25:26;6.60;99.90
12872;DHT22;6504;53.766;9.626;2022-11-15T06:27:55;6.60;99.90
12872;DHT22;6504;53.766;9.626;2022-11-15T06:30:24;6.60;99.90
12872;DHT22;6504;53.766;9.626;2022-11-15T06:33:00;6.70;99.90
12872;DHT22;6504;53.766;9.626;2022-11-15T06:35:29;6.70;99.90
12872;DHT22;6504;53.766;9.626;2022-11-15T06:38:02;6.70;99.90
12872;DHT22;6504;53.766;9.626;2022-11-15T06:40:30;6.70;99.90
12872;DHT22;6504;53.766;9.626;2022-11-15T06:42:58;6.70;99.90
12872;DHT22;6504;53.766;9.626;2022-11-15T06:45:26;6.70;99.90
12872;DHT22;6504;53.766;9.626;2022-11-15T06:47:55;6.70;99.90
12872;DHT22;6504;53.766;9.626;2022-11-15T06:50:24;6.70;99.90
12872;DHT22;6504;53.766;9.626;2022-11-15T06:52:52;6.70;99.90
12872;DHT22;6504;53.766;9.626;2022-11-15T06:55:21;6.70;99.90
12872;DHT22;6504;53.766;9.626;2022-11-15T06:57:49;6.70;99.90
12872;DHT22;6504;53.766;9.626;2022-11-15T07:00:19;6.70;99.90
12872;DHT22;6504;53.766;9.626;2022-11-15T07:02:48;6.80;99.90
12872;DHT22;6504;53.766;9.626;2022-11-15T07:05:16;6.80;99.90
12872;DHT22;6504;53.766;9.626;2022-11-15T07:07:52;6.80;99.90
12872;DHT22;6504;53.766;9.626;2022-11-15T07:10:21;6.80;99.90
12872;DHT22;6504;53.766;9.626;2022-11-15T07:12:50;6.80;99.90
12872;DHT22;6504;53.766;9.626;2022-11-15T07:15:20;6.80;99.90
12872;DHT22;6504;53.766;9.626;2022-11-15T07:17:49;6.80;99.90
12872;DHT22;6504;53.766;9.626;2022-11-15T07:20:17;6.90;99.90
12872;DHT22;6504;53.766;9.626;2022-11-15T07:22:46;6.90;99.90
12872;DHT22;6504;53.766;9.626;2022-11-15T07:25:15;6.90;99.90
12872;DHT22;6504;53.766;9.626;2022-11-15T07:27:43;6.90;99.90
12872;DHT22;6504;53.766;9.626;2022-11-15T07:30:12;7.00;99.90
12872;DHT22;6504;53.766;9.626;2022-11-15T07:32:41;7.00;99.90
12872;DHT22;6504;53.766;9.626;2022-11-15T07:35:09;7.00;99.90
12872;DHT22;6504;53.766;9.626;2022-11-15T07:37:38;7.00;99.90
12872;DHT22;6504;53.766;9.626;2022-11-15T07:40:07;7.10;99.90
12872;DHT22;6504;53.766;9.626;2022-11-15T07:42:37;7.10;99.90
12872;DHT22;6504;53.766;9.626;2022-11-15T07:45:20;7.10;99.90
12872;DHT22;6504;53.766;9.626;2022-11-15T07:47:48;7.20;99.90
12872;DHT22;6504;53.766;9.626;2022-11-15T07:50:17;7.20;99.90
12872;DHT22;6504;53.766;9.626;2022-11-15T07:52:45;7.20;99.90
12872;DHT22;6504;53.766;9.626;2022-11-15T07:55:14;7.20;99.90
12872;DHT22;6504;53.766;9.626;2022-11-15T07:57:43;7.20;99.90
12872;DHT22;6504;53.766;9.626;2022-11-15T08:00:12;7.30;99.90
12872;DHT22;6504;53.766;9.626;2022-11-15T08:02:41;7.30;99.90
12872;DHT22;6504;53.766;9.626;2022-11-15T08:05:09;7.30;99.90
12872;DHT22;6504;53.766;9.626;2022-11-15T08:07:37;7.30;99.90
12872;DHT22;6504;53.766;9.626;2022-11-15T08:10:07;7.40;99.90
12872;DHT22;6504;53.766;9.626;2022-11-15T08:12:36;7.40;99.90
12872;DHT22;6504;53.766;9.626;2022-11-15T08:15:06;7.40;99.90
12872;DHT22;6504;53.766;9.626;2022-11-15T08:17:34;7.40;99.90
12872;DHT22;6504;53.766;9.626;2022-11-15T08:20:02;7.40;99.90
12872;DHT22;6504;53.766;9.626;2022-11-15T08:22:31;7.50;99.90
12872;DHT22;6504;53.766;9.626;2022-11-15T08:25:00;7.50;99.90
12872;DHT22;6504;53.766;9.626;2022-11-15T08:27:28;7.50;99.90
12872;DHT22;6504;53.766;9.626;2022-11-15T08:29:57;7.50;99.90
12872;DHT22;6504;53.766;9.626;2022-11-15T08:32:26;7.60;99.90
12872;DHT22;6504;53.766;9.626;2022-11-15T08:34:54;7.60;99.90
12872;DHT22;6504;53.766;9.626;2022-11-15T08:37:22;7.60;99.90
12872;DHT22;6504;53.766;9.626;2022-11-15T08:39:50;7.60;99.90
12872;DHT22;6504;53.766;9.626;2022-11-15T08:42:18;7.70;99.90
12872;DHT22;6504;53.766;9.626;2022-11-15T08:44:46;7.70;99.90
12872;DHT22;6504;53.766;9.626;2022-11-15T08:47:14;7.70;99.90
12872;DHT22;6504;53.766;9.626;2022-11-15T08:49:44;7.70;99.90
12872;DHT22;6504;53.766;9.626;2022-11-15T08:52:12;7.80;99.90
12872;DHT22;6504;53.766;9.626;2022-11-15T08:54:41;7.80;99.90
12872;DHT22;6504;53.766;9.626;2022-11-15T08:57:09;7.80;99.90
12872;DHT22;6504;53.766;9.626;2022-11-15T08:59:37;7.90;99.90
12872;DHT22;6504;53.766;9.626;2022-11-15T09:02:05;7.90;99.90
12872;DHT22;6504;53.766;9.626;2022-11-15T09:04:33;7.90;99.90
12872;DHT22;6504;53.766;9.626;2022-11-15T09:07:03;8.00;99.90
12872;DHT22;6504;53.766;9.626;2022-11-15T09:09:31;8.00;99.90
12872;DHT22;6504;53.766;9.626;2022-11-15T09:11:59;8.00;99.90
12872;DHT22;6504;53.766;9.626;2022-11-15T09:14:29;8.00;99.90
12872;DHT22;6504;53.766;9.626;2022-11-15T09:16:57;8.10;99.90
12872;DHT22;6504;53.766;9.626;2022-11-15T09:19:25;8.10;99.90
12872;DHT22;6504;53.766;9.626;2022-11-15T09:21:53;8.20;99.90
12872;DHT22;6504;53.766;9.626;2022-11-15T09:24:22;8.20;99.90
12872;DHT22;6504;53.766;9.626;2022-11-15T09:26:50;8.20;99.90
12872;DHT22;6504;53.766;9.626;2022-11-15T09:29:19;8.30;99.90
12872;DHT22;6504;53.766;9.626;2022-11-15T09:31:47;8.30;99.90
12872;DHT22;6504;53.766;9.626;2022-11-15T09:34:15;8.30;99.90
12872;DHT22;6504;53.766;9.626;2022-11-15T09:36:43;8.30;99.90
12872;DHT22;6504;53.766;9.626;2022-11-15T09:39:11;8.40;99.90
12872;DHT22;6504;53.766;9.626;2022-11-15T09:41:52;8.40;99.90
12872;DHT22;6504;53.766;9.626;2022-11-15T09:44:37;8.40;99.90
12872;DHT22;6504;53.766;9.626;2022-11-15T09:47:27;8.40;99.90
12872;DHT22;6504;53.766;9.626;2022-11-15T09:49:59;8.50;99.90
12872;DHT22;6504;53.766;9.626;2022-11-15T09:52:28;8.50;99.90
12872;DHT22;6504;53.766;9.626;2022-11-15T09:54:56;8.60;99.90
12872;DHT22;6504;53.766;9.626;2022-11-15T09:57:31;8.60;99.90
12872;DHT22;6504;53.766;9.626;2022-11-15T10:00:08;8.60;99.90
12872;DHT22;6504;53.766;9.626;2022-11-15T10:03:08;8.60;99.90
12872;DHT22;6504;53.766;9.626;2022-11-15T10:05:40;8.70;99.90
12872;DHT22;6504;53.766;9.626;2022-11-15T10:08:22;8.80;99.90
12872;DHT22;6504;53.766;9.626;2022-11-15T10:10:56;8.80;99.90
12872;DHT22;6504;53.766;9.626;2022-11-15T10:13:47;8.90;99.90
12872;DHT22;6504;53.766;9.626;2022-11-15T10:19:16;8.90;99.90
12872;DHT22;6504;53.766;9.626;2022-11-15T10:21:55;8.90;99.90
12872;DHT22;6504;53.766;9.626;2022-11-15T10:24:27;9.00;99.90
12872;DHT22;6504;53.766;9.626;2022-11-15T10:26:56;9.00;99.90
12872;DHT22;6504;53.766;9.626;2022-11-15T10:29:25;9.00;99.90
12872;DHT22;6504;53.766;9.626;2022-11-15T10:31:54;9.10;99.90
12872;DHT22;6504;53.766;9.626;2022-11-15T10:34:26;9.00;99.90
12872;DHT22;6504;53.766;9.626;2022-11-15T10:36:56;9.10;99.90
12872;DHT22;6504;53.766;9.626;2022-11-15T10:39:24;9.10;99.90
12872;DHT22;6504;53.766;9.626;2022-11-15T10:41:53;9.10;99.90
12872;DHT22;6504;53.766;9.626;2022-11-15T10:44:25;9.20;99.90
12872;DHT22;6504;53.766;9.626;2022-11-15T10:47:24;9.10;99.90
12872;DHT22;6504;53.766;9.626;2022-11-15T10:49:58;9.20;99.90
12872;DHT22;6504;53.766;9.626;2022-11-15T10:52:27;9.20;99.90
12872;DHT22;6504;53.766;9.626;2022-11-15T10:55:00;9.20;99.90
12872;DHT22;6504;53.766;9.626;2022-11-15T10:57:32;9.20;99.90
12872;DHT22;6504;53.766;9.626;2022-11-15T11:00:06;9.20;99.90
12872;DHT22;6504;53.766;9.626;2022-11-15T11:02:35;9.20;99.90
12872;DHT22;6504;53.766;9.626;2022-11-15T11:05:06;9.20;99.90
12872;DHT22;6504;53.766;9.626;2022-11-15T11:07:56;9.20;99.90
12872;DHT22;6504;53.766;9.626;2022-11-15T11:10:25;9.20;99.90
12872;DHT22;6504;53.766;9.626;2022-11-15T11:13:14;9.30;99.90
12872;DHT22;6504;53.766;9.626;2022-11-15T11:15:47;9.30;99.90
12872;DHT22;6504;53.766;9.626;2022-11-15T11:18:25;9.30;99.90
12872;DHT22;6504;53.766;9.626;2022-11-15T11:20:58;9.30;99.90
12872;DHT22;6504;53.766;9.626;2022-11-15T11:23:38;9.40;99.90
12872;DHT22;6504;53.766;9.626;2022-11-15T11:26:18;9.40;99.90
12872;DHT22;6504;53.766;9.626;2022-11-15T11:28:57;9.40;99.90
12872;DHT22;6504;53.766;9.626;2022-11-15T11:31:33;9.40;99.90
12872;DHT22;6504;53.766;9.626;2022-11-15T11:34:13;9.40;99.90
12872;DHT22;6504;53.766;9.626;2022-11-15T11:36:48;9.50;99.90
12872;DHT22;6504;53.766;9.626;2022-11-15T11:39:24;9.50;99.90
12872;DHT22;6504;53.766;9.626;2022-11-15T11:42:01;9.50;99.90
12872;DHT22;6504;53.766;9.626;2022-11-15T11:44:36;9.50;99.90
12872;DHT22;6504;53.766;9.626;2022-11-15T11:47:10;9.50;99.90
12872;DHT22;6504;53.766;9.626;2022-11-15T11:49:43;9.50;99.90
12872;DHT22;6504;53.766;9.626;2022-11-15T11:52:16;9.50;99.90
12872;DHT22;6504;53.766;9.626;2022-11-15T11:55:02;9.60;99.90
12872;DHT22;6504;53.766;9.626;2022-11-15T11:57:37;9.60;99.90
12872;DHT22;6504;53.766;9.626;2022-11-15T12:00:15;9.60;99.90
12872;DHT22;6504;53.766;9.626;2022-11-15T12:02:53;9.70;99.90
12872;DHT22;6504;53.766;9.626;2022-11-15T12:05:30;9.70;99.90
12872;DHT22;6504;53.766;9.626;2022-11-15T12:08:04;9.70;99.90
12872;DHT22;6504;53.766;9.626;2022-11-15T12:10:34;9.80;99.90
12872;DHT22;6504;53.766;9.626;2022-11-15T12:13:06;9.80;99.90
12872;DHT22;6504;53.766;9.626;2022-11-15T12:15:41;9.80;99.90
12872;DHT22;6504;53.766;9.626;2022-11-15T12:18:15;9.90;99.90
12872;DHT22;6504;53.766;9.626;2022-11-15T12:20:51;9.90;99.90
12872;DHT22;6504;53.766;9.626;2022-11-15T12:23:24;9.90;99.90
12872;DHT22;6504;53.766;9.626;2022-11-15T12:25:58;10.00;99.90
12872;DHT22;6504;53.766;9.626;2022-11-15T12:28:35;10.00;99.90
12872;DHT22;6504;53.766;9.626;2022-11-15T12:31:37;10.00;99.90
12872;DHT22;6504;53.766;9.626;2022-11-15T12:34:29;10.10;99.90
12872;DHT22;6504;53.766;9.626;2022-11-15T12:36:57;10.20;99.90
12872;DHT22;6504;53.766;9.626;2022-11-15T12:42:40;10.30;99.90
12872;DHT22;6504;53.766;9.626;2022-11-15T12:45:25;10.30;99.90
12872;DHT22;6504;53.766;9.626;2022-11-15T12:47:53;10.40;99.90
12872;DHT22;6504;53.766;9.626;2022-11-15T12:53:30;10.50;99.90
12872;DHT22;6504;53.766;9.626;2022-11-15T12:56:21;10.50;99.90
12872;DHT22;6504;53.766;9.626;2022-11-15T12:58:54;10.60;99.90
12872;DHT22;6504;53.766;9.626;2022-11-15T13:01:57;10.60;99.90
12872;DHT22;6504;53.766;9.626;2022-11-15T13:04:28;10.70;99.90
12872;DHT22;6504;53.766;9.626;2022-11-15T13:06:59;10.70;99.90
12872;DHT22;6504;53.766;9.626;2022-11-15T13:09:54;10.70;99.90
12872;DHT22;6504;53.766;9.626;2022-11-15T13:12:49;10.80;99.90
12872;DHT22;6504;53.766;9.626;2022-11-15T13:15:54;10.80;99.90
12872;DHT22;6504;53.766;9.626;2022-11-15T13:18:33;10.80;99.90
12872;DHT22;6504;53.766;9.626;2022-11-15T13:21:03;10.90;99.90
12872;DHT22;6504;53.766;9.626;2022-11-15T13:23:54;10.90;99.90
12872;DHT22;6504;53.766;9.626;2022-11-15T13:26:24;10.90;99.90
12872;DHT22;6504;53.766;9.626;2022-11-15T13:28:52;11.00;99.90
12872;DHT22;6504;53.766;9.626;2022-11-15T13:31:40;11.00;99.90
12872;DHT22;6504;53.766;9.626;2022-11-15T13:34:21;11.10;99.90
12872;DHT22;6504;53.766;9.626;2022-11-15T13:37:13;11.10;99.90
12872;DHT22;6504;53.766;9.626;2022-11-15T13:39:54;11.20;99.90
12872;DHT22;6504;53.766;9.626;2022-11-15T13:42:30;11.20;99.90
12872;DHT22;6504;53.766;9.626;2022-11-15T13:45:00;11.30;99.90
12872;DHT22;6504;53.766;9.626;2022-11-15T13:47:29;11.30;99.90
12872;DHT22;6504;53.766;9.626;2022-11-15T13:49:58;11.30;99.90
12872;DHT22;6504;53.766;9.626;2022-11-15T13:52:30;11.40;99.90
12872;DHT22;6504;53.766;9.626;2022-11-15T13:55:01;11.40;99.90
12872;DHT22;6504;53.766;9.626;2022-11-15T13:57:38;11.40;99.90
12872;DHT22;6504;53.766;9.626;2022-11-15T14:00:26;11.50;99.90
12872;DHT22;6504;53.766;9.626;2022-11-15T14:02:55;11.50;99.90
12872;DHT22;6504;53.766;9.626;2022-11-15T14:05:24;11.50;99.90
12872;DHT22;6504;53.766;9.626;2022-11-15T14:07:53;11.50;99.90
12872;DHT22;6504;53.766;9.626;2022-11-15T14:10:28;11.50;99.90
12872;DHT22;6504;53.766;9.626;2022-11-15T14:12:59;11.60;99.90
12872;DHT22;6504;53.766;9.626;2022-11-15T14:15:30;11.60;99.90
12872;DHT22;6504;53.766;9.626;2022-11-15T14:17:58;11.60;99.90
12872;DHT22;6504;53.766;9.626;2022-11-15T14:20:29;11.50;99.90
12872;DHT22;6504;53.766;9.626;2022-11-15T14:23:01;11.50;99.90
12872;DHT22;6504;53.766;9.626;2022-11-15T14:25:30;11.60;99.90
12872;DHT22;6504;53.766;9.626;2022-11-15T14:28:12;11.50;99.90
12872;DHT22;6504;53.766;9.626;2022-11-15T14:30:43;11.50;99.90
12872;DHT22;6504;53.766;9.626;2022-11-15T14:33:25;11.50;99.90
12872;DHT22;6504;53.766;9.626;2022-11-15T14:35:55;11.40;99.90
12872;DHT22;6504;53.766;9.626;2022-11-15T14:38:25;11.40;99.90
12872;DHT22;6504;53.766;9.626;2022-11-15T14:40:53;11.40;99.90
12872;DHT22;6504;53.766;9.626;2022-11-15T14:43:24;11.40;99.90
12872;DHT22;6504;53.766;9.626;2022-11-15T14:45:52;11.40;99.90
12872;DHT22;6504;53.766;9.626;2022-11-15T14:48:20;11.30;99.90
12872;DHT22;6504;53.766;9.626;2022-11-15T14:50:48;11.30;99.90
12872;DHT22;6504;53.766;9.626;2022-11-15T14:53:17;11.30;99.90
12872;DHT22;6504;53.766;9.626;2022-11-15T14:55:46;11.30;99.90
12872;DHT22;6504;53.766;9.626;2022-11-15T14:58:14;11.20;99.90
12872;DHT22;6504;53.766;9.626;2022-11-15T15:00:44;11.20;99.90
12872;DHT22;6504;53.766;9.626;2022-11-15T15:03:12;11.20;99.90
12872;DHT22;6504;53.766;9.626;2022-11-15T15:05:41;11.20;99.90
12872;DHT22;6504;53.766;9.626;2022-11-15T15:08:10;11.20;99.90
12872;DHT22;6504;53.766;9.626;2022-11-15T15:10:40;11.10;99.90
12872;DHT22;6504;53.766;9.626;2022-11-15T15:13:16;11.10;99.90
12872;DHT22;6504;53.766;9.626;2022-11-15T15:15:47;11.10;99.90
12872;DHT22;6504;53.766;9.626;2022-11-15T15:18:16;11.10;99.90
12872;DHT22;6504;53.766;9.626;2022-11-15T15:20:51;11.10;99.90
12872;DHT22;6504;53.766;9.626;2022-11-15T15:23:21;11.10;99.90
12872;DHT22;6504;53.766;9.626;2022-11-15T15:25:50;11.00;99.90
12872;DHT22;6504;53.766;9.626;2022-11-15T15:28:19;11.00;99.90
12872;DHT22;6504;53.766;9.626;2022-11-15T15:30:48;11.00;99.90
12872;DHT22;6504;53.766;9.626;2022-11-15T15:33:17;11.00;99.90
12872;DHT22;6504;53.766;9.626;2022-11-15T15:35:45;11.00;99.90
12872;DHT22;6504;53.766;9.626;2022-11-15T15:38:13;11.00;99.90
12872;DHT22;6504;53.766;9.626;2022-11-15T15:40:42;11.00;99.90
12872;DHT22;6504;53.766;9.626;2022-11-15T15:43:10;11.00;99.90
12872;DHT22;6504;53.766;9.626;2022-11-15T15:45:39;11.00;99.90
12872;DHT22;6504;53.766;9.626;2022-11-15T15:48:11;10.90;99.90
12872;DHT22;6504;53.766;9.626;2022-11-15T15:50:40;10.90;99.90
12872;DHT22;6504;53.766;9.626;2022-11-15T15:53:10;10.90;99.90
12872;DHT22;6504;53.766;9.626;2022-11-15T15:55:38;10.80;99.90
12872;DHT22;6504;53.766;9.626;2022-11-15T15:58:06;10.80;99.90
12872;DHT22;6504;53.766;9.626;2022-11-15T16:00:35;10.80;99.90
12872;DHT22;6504;53.766;9.626;2022-11-15T16:03:03;10.70;99.90
12872;DHT22;6504;53.766;9.626;2022-11-15T16:05:33;10.70;99.90
12872;DHT22;6504;53.766;9.626;2022-11-15T16:08:01;10.60;99.90
12872;DHT22;6504;53.766;9.626;2022-11-15T16:10:32;10.60;99.90
12872;DHT22;6504;53.766;9.626;2022-11-15T16:13:00;10.60;99.90
12872;DHT22;6504;53.766;9.626;2022-11-15T16:15:30;10.50;99.90
12872;DHT22;6504;53.766;9.626;2022-11-15T16:18:00;10.50;99.90
12872;DHT22;6504;53.766;9.626;2022-11-15T16:20:35;10.50;99.90
12872;DHT22;6504;53.766;9.626;2022-11-15T16:23:05;10.40;99.90
12872;DHT22;6504;53.766;9.626;2022-11-15T16:25:40;10.40;99.90
12872;DHT22;6504;53.766;9.626;2022-11-15T16:28:20;10.40;99.90
12872;DHT22;6504;53.766;9.626;2022-11-15T16:30:49;10.40;99.90
12872;DHT22;6504;53.766;9.626;2022-11-15T16:33:22;10.30;99.90
12872;DHT22;6504;53.766;9.626;2022-11-15T16:35:52;10.30;99.90
12872;DHT22;6504;53.766;9.626;2022-11-15T16:38:20;10.30;99.90
12872;DHT22;6504;53.766;9.626;2022-11-15T16:40:48;10.20;99.90